sensor_id;sensor_type;location;lat;lon;timestamp;P1;durP1;ratioP1;P2;durP2;ratioP2
59089;SDS011;44878;50.102;18.982;2023-05-07T00:00:52;31.98;;;29.00;;
59089;SDS011;44878;50.102;18.982;2023-05-07T00:03:21;32.55;;;29.45;;
59089;SDS011;44878;50.102;18.982;2023-05-07T00:05:47;30.52;;;27.63;;
59089;SDS011;44878;50.102;18.982;2023-05-07T00:08:13;31.33;;;28.50;;
59089;SDS011;44878;50.102;18.982;2023-05-07T00:10:40;33.50;;;30.40;;
59089;SDS011;44878;50.102;18.982;2023-05-07T00:13:06;31.85;;;29.05;;
59089;SDS011;44878;50.102;18.982;2023-05-07T00:15:32;32.92;;;29.85;;
59089;SDS011;44878;50.102;18.982;2023-05-07T00:17:58;31.38;;;28.58;;
59089;SDS011;44878;50.102;18.982;2023-05-07T00:20:25;31.98;;;29.17;;
59089;SDS011;44878;50.102;18.982;2023-05-07T00:22:50;33.50;;;30.42;;
59089;SDS011;44878;50.102;18.982;2023-05-07T00:25:16;33.42;;;30.45;;
59089;SDS011;44878;50.102;18.982;2023-05-07T00:27:44;33.13;;;30.20;;
59089;SDS011;44878;50.102;18.982;2023-05-07T00:30:11;33.83;;;30.58;;
59089;SDS011;44878;50.102;18.982;2023-05-07T00:32:37;32.67;;;29.48;;
59089;SDS011;44878;50.102;18.982;2023-05-07T00:35:03;34.28;;;31.30;;
59089;SDS011;44878;50.102;18.982;2023-05-07T00:37:29;32.97;;;30.08;;
59089;SDS011;44878;50.102;18.982;2023-05-07T00:39:55;28.05;;;25.55;;
59089;SDS011;44878;50.102;18.982;2023-05-07T00:42:21;25.95;;;23.45;;
59089;SDS011;44878;50.102;18.982;2023-05-07T00:44:47;25.88;;;23.58;;
59089;SDS011;44878;50.102;18.982;2023-05-07T00:47:13;28.80;;;26.00;;
59089;SDS011;44878;50.102;18.982;2023-05-07T00:49:41;26.55;;;24.05;;
59089;SDS011;44878;50.102;18.982;2023-05-07T00:52:07;26.60;;;24.20;;
59089;SDS011;44878;50.102;18.982;2023-05-07T00:54:35;24.42;;;22.23;;
59089;SDS011;44878;50.102;18.982;2023-05-07T00:57:01;23.17;;;20.98;;
59089;SDS011;44878;50.102;18.982;2023-05-07T00:59:31;23.48;;;21.23;;
59089;SDS011;44878;50.102;18.982;2023-05-07T01:01:57;23.02;;;21.02;;
59089;SDS011;44878;50.102;18.982;2023-05-07T01:04:23;23.27;;;21.05;;
59089;SDS011;44878;50.102;18.982;2023-05-07T01:06:49;22.63;;;20.55;;
59089;SDS011;44878;50.102;18.982;2023-05-07T01:09:15;22.23;;;20.05;;
59089;SDS011;44878;50.102;18.982;2023-05-07T01:11:41;22.55;;;20.55;;
59089;SDS011;44878;50.102;18.982;2023-05-07T01:14:08;21.98;;;19.98;;
59089;SDS011;44878;50.102;18.982;2023-05-07T01:16:35;21.65;;;19.60;;
59089;SDS011;44878;50.102;18.982;2023-05-07T01:19:02;20.90;;;19.00;;
59089;SDS011;44878;50.102;18.982;2023-05-07T01:21:28;21.30;;;19.40;;
59089;SDS011;44878;50.102;18.982;2023-05-07T01:23:58;20.98;;;18.98;;
59089;SDS011;44878;50.102;18.982;2023-05-07T01:26:24;21.63;;;19.42;;
59089;SDS011;44878;50.102;18.982;2023-05-07T01:28:50;20.52;;;18.73;;
59089;SDS011;44878;50.102;18.982;2023-05-07T01:31:15;20.40;;;18.30;;
59089;SDS011;44878;50.102;18.982;2023-05-07T01:33:42;21.00;;;19.10;;
59089;SDS011;44878;50.102;18.982;2023-05-07T01:36:13;19.70;;;17.77;;
59089;SDS011;44878;50.102;18.982;2023-05-07T01:38:40;19.50;;;17.70;;
59089;SDS011;44878;50.102;18.982;2023-05-07T01:41:06;18.97;;;17.00;;
59089;SDS011;44878;50.102;18.982;2023-05-07T01:43:32;18.45;;;16.75;;
59089;SDS011;44878;50.102;18.982;2023-05-07T01:45:58;16.77;;;15.18;;
59089;SDS011;44878;50.102;18.982;2023-05-07T01:48:25;17.55;;;16.05;;
59089;SDS011;44878;50.102;18.982;2023-05-07T01:50:51;16.42;;;14.82;;
59089;SDS011;44878;50.102;18.982;2023-05-07T01:53:17;15.73;;;14.23;;
59089;SDS011;44878;50.102;18.982;2023-05-07T01:55:43;15.85;;;14.27;;
59089;SDS011;44878;50.102;18.982;2023-05-07T01:58:09;16.83;;;15.32;;
59089;SDS011;44878;50.102;18.982;2023-05-07T02:00:36;16.42;;;14.93;;
59089;SDS011;44878;50.102;18.982;2023-05-07T02:03:01;17.15;;;15.48;;
59089;SDS011;44878;50.102;18.982;2023-05-07T02:05:27;17.02;;;15.43;;
59089;SDS011;44878;50.102;18.982;2023-05-07T02:07:53;17.45;;;15.63;;
59089;SDS011;44878;50.102;18.982;2023-05-07T02:10:19;17.05;;;15.35;;
59089;SDS011;44878;50.102;18.982;2023-05-07T02:12:45;16.60;;;15.18;;
59089;SDS011;44878;50.102;18.982;2023-05-07T02:15:11;17.33;;;15.75;;
59089;SDS011;44878;50.102;18.982;2023-05-07T02:17:57;17.17;;;15.57;;
59089;SDS011;44878;50.102;18.982;2023-05-07T02:20:24;18.40;;;16.80;;
59089;SDS011;44878;50.102;18.982;2023-05-07T02:22:50;18.23;;;16.52;;
59089;SDS011;44878;50.102;18.982;2023-05-07T02:25:16;17.30;;;15.68;;
59089;SDS011;44878;50.102;18.982;2023-05-07T02:27:42;18.13;;;16.45;;
59089;SDS011;44878;50.102;18.982;2023-05-07T02:30:08;18.88;;;17.10;;
59089;SDS011;44878;50.102;18.982;2023-05-07T02:32:33;20.77;;;18.88;;
59089;SDS011;44878;50.102;18.982;2023-05-07T02:35:03;22.60;;;20.67;;
59089;SDS011;44878;50.102;18.982;2023-05-07T02:37:28;27.08;;;24.52;;
59089;SDS011;44878;50.102;18.982;2023-05-07T02:39:55;26.52;;;24.02;;
59089;SDS011;44878;50.102;18.982;2023-05-07T02:42:20;27.50;;;24.80;;
59089;SDS011;44878;50.102;18.982;2023-05-07T02:44:47;27.08;;;24.55;;
59089;SDS011;44878;50.102;18.982;2023-05-07T02:47:13;27.83;;;25.10;;
59089;SDS011;44878;50.102;18.982;2023-05-07T02:49:39;30.05;;;27.05;;
59089;SDS011;44878;50.102;18.982;2023-05-07T02:52:04;30.55;;;27.58;;
59089;SDS011;44878;50.102;18.982;2023-05-07T02:54:30;31.70;;;28.67;;
59089;SDS011;44878;50.102;18.982;2023-05-07T02:56:56;30.55;;;27.55;;
59089;SDS011;44878;50.102;18.982;2023-05-07T02:59:24;31.20;;;27.90;;
59089;SDS011;44878;50.102;18.982;2023-05-07T03:01:51;30.20;;;27.38;;
59089;SDS011;44878;50.102;18.982;2023-05-07T03:04:17;28.70;;;26.00;;
59089;SDS011;44878;50.102;18.982;2023-05-07T03:06:43;31.58;;;28.27;;
59089;SDS011;44878;50.102;18.982;2023-05-07T03:09:09;30.15;;;27.27;;
59089;SDS011;44878;50.102;18.982;2023-05-07T03:11:34;29.70;;;26.85;;
59089;SDS011;44878;50.102;18.982;2023-05-07T03:14:01;27.63;;;24.92;;
59089;SDS011;44878;50.102;18.982;2023-05-07T03:16:27;27.52;;;24.95;;
59089;SDS011;44878;50.102;18.982;2023-05-07T03:18:53;28.77;;;25.98;;
59089;SDS011;44878;50.102;18.982;2023-05-07T03:21:19;29.58;;;26.77;;
59089;SDS011;44878;50.102;18.982;2023-05-07T03:23:45;28.50;;;25.85;;
59089;SDS011;44878;50.102;18.982;2023-05-07T03:26:11;28.63;;;25.98;;
59089;SDS011;44878;50.102;18.982;2023-05-07T03:28:37;29.20;;;26.30;;
59089;SDS011;44878;50.102;18.982;2023-05-07T03:31:02;29.55;;;26.75;;
59089;SDS011;44878;50.102;18.982;2023-05-07T03:33:29;27.92;;;25.20;;
59089;SDS011;44878;50.102;18.982;2023-05-07T03:35:55;29.13;;;26.42;;
59089;SDS011;44878;50.102;18.982;2023-05-07T03:38:21;30.95;;;27.73;;
59089;SDS011;44878;50.102;18.982;2023-05-07T03:40:46;31.65;;;28.70;;
59089;SDS011;44878;50.102;18.982;2023-05-07T03:43:12;30.58;;;27.98;;
59089;SDS011;44878;50.102;18.982;2023-05-07T03:45:38;30.55;;;27.98;;
59089;SDS011;44878;50.102;18.982;2023-05-07T03:48:04;28.80;;;26.17;;
59089;SDS011;44878;50.102;18.982;2023-05-07T03:50:30;34.58;;;31.67;;
59089;SDS011;44878;50.102;18.982;2023-05-07T03:52:56;26.05;;;23.55;;
59089;SDS011;44878;50.102;18.982;2023-05-07T03:55:22;25.00;;;22.85;;
59089;SDS011;44878;50.102;18.982;2023-05-07T03:57:48;21.85;;;19.77;;
59089;SDS011;44878;50.102;18.982;2023-05-07T04:00:13;21.67;;;19.77;;
59089;SDS011;44878;50.102;18.982;2023-05-07T04:02:39;21.52;;;19.38;;
59089;SDS011;44878;50.102;18.982;2023-05-07T04:05:05;19.77;;;18.08;;
59089;SDS011;44878;50.102;18.982;2023-05-07T04:07:31;20.27;;;18.38;;
59089;SDS011;44878;50.102;18.982;2023-05-07T04:09:57;20.42;;;18.63;;
59089;SDS011;44878;50.102;18.982;2023-05-07T04:12:26;21.10;;;19.17;;
59089;SDS011;44878;50.102;18.982;2023-05-07T04:14:52;18.03;;;16.40;;
59089;SDS011;44878;50.102;18.982;2023-05-07T04:17:18;15.68;;;14.18;;
59089;SDS011;44878;50.102;18.982;2023-05-07T04:19:43;17.13;;;15.52;;
59089;SDS011;44878;50.102;18.982;2023-05-07T04:22:11;17.58;;;15.93;;
59089;SDS011;44878;50.102;18.982;2023-05-07T04:24:37;17.83;;;16.13;;
59089;SDS011;44878;50.102;18.982;2023-05-07T04:27:03;20.80;;;18.90;;
59089;SDS011;44878;50.102;18.982;2023-05-07T04:29:28;21.37;;;19.57;;
59089;SDS011;44878;50.102;18.982;2023-05-07T04:31:54;22.50;;;20.57;;
59089;SDS011;44878;50.102;18.982;2023-05-07T04:34:21;21.07;;;19.33;;
59089;SDS011;44878;50.102;18.982;2023-05-07T04:36:50;27.10;;;24.70;;
59089;SDS011;44878;50.102;18.982;2023-05-07T04:39:16;25.07;;;22.90;;
59089;SDS011;44878;50.102;18.982;2023-05-07T04:41:45;20.93;;;19.07;;
59089;SDS011;44878;50.102;18.982;2023-05-07T04:44:11;23.03;;;21.03;;
59089;SDS011;44878;50.102;18.982;2023-05-07T04:46:37;24.70;;;22.70;;
59089;SDS011;44878;50.102;18.982;2023-05-07T04:49:02;23.33;;;21.37;;
59089;SDS011;44878;50.102;18.982;2023-05-07T04:51:29;23.87;;;21.93;;
59089;SDS011;44878;50.102;18.982;2023-05-07T04:53:54;15.73;;;14.13;;
59089;SDS011;44878;50.102;18.982;2023-05-07T04:56:20;24.10;;;22.07;;
59089;SDS011;44878;50.102;18.982;2023-05-07T04:58:46;19.07;;;17.53;;
59089;SDS011;44878;50.102;18.982;2023-05-07T05:01:15;20.67;;;18.97;;
59089;SDS011;44878;50.102;18.982;2023-05-07T05:03:41;17.55;;;16.25;;
59089;SDS011;44878;50.102;18.982;2023-05-07T05:06:07;16.93;;;15.43;;
59089;SDS011;44878;50.102;18.982;2023-05-07T05:08:33;18.53;;;16.93;;
59089;SDS011;44878;50.102;18.982;2023-05-07T05:11:00;23.90;;;22.10;;
59089;SDS011;44878;50.102;18.982;2023-05-07T05:13:26;19.97;;;18.37;;
59089;SDS011;44878;50.102;18.982;2023-05-07T05:15:52;21.13;;;19.53;;
59089;SDS011;44878;50.102;18.982;2023-05-07T05:18:18;22.70;;;20.83;;
59089;SDS011;44878;50.102;18.982;2023-05-07T05:20:43;20.70;;;19.00;;
59089;SDS011;44878;50.102;18.982;2023-05-07T05:23:13;20.43;;;18.70;;
59089;SDS011;44878;50.102;18.982;2023-05-07T05:25:39;18.23;;;16.63;;
59089;SDS011;44878;50.102;18.982;2023-05-07T05:28:05;15.90;;;14.50;;
59089;SDS011;44878;50.102;18.982;2023-05-07T05:30:31;14.53;;;13.23;;
59089;SDS011;44878;50.102;18.982;2023-05-07T05:32:57;13.17;;;11.87;;
59089;SDS011;44878;50.102;18.982;2023-05-07T05:35:23;14.57;;;13.27;;
59089;SDS011;44878;50.102;18.982;2023-05-07T05:37:49;13.37;;;12.00;;
59089;SDS011;44878;50.102;18.982;2023-05-07T05:40:15;11.33;;;10.23;;
59089;SDS011;44878;50.102;18.982;2023-05-07T05:42:41;11.37;;;9.50;;
59089;SDS011;44878;50.102;18.982;2023-05-07T05:45:07;11.00;;;10.00;;
59089;SDS011;44878;50.102;18.982;2023-05-07T05:47:33;11.27;;;10.20;;
59089;SDS011;44878;50.102;18.982;2023-05-07T05:49:59;10.82;;;9.82;;
59089;SDS011;44878;50.102;18.982;2023-05-07T05:52:25;10.90;;;9.90;;
59089;SDS011;44878;50.102;18.982;2023-05-07T05:54:51;11.53;;;10.53;;
59089;SDS011;44878;50.102;18.982;2023-05-07T05:57:16;12.37;;;11.30;;
59089;SDS011;44878;50.102;18.982;2023-05-07T05:59:48;11.80;;;10.73;;
59089;SDS011;44878;50.102;18.982;2023-05-07T06:02:14;11.15;;;10.05;;
59089;SDS011;44878;50.102;18.982;2023-05-07T06:04:49;11.87;;;10.67;;
59089;SDS011;44878;50.102;18.982;2023-05-07T06:07:15;12.10;;;11.00;;
59089;SDS011;44878;50.102;18.982;2023-05-07T06:09:41;12.93;;;11.73;;
59089;SDS011;44878;50.102;18.982;2023-05-07T06:12:07;14.17;;;12.83;;
59089;SDS011;44878;50.102;18.982;2023-05-07T06:14:37;13.30;;;12.07;;
59089;SDS011;44878;50.102;18.982;2023-05-07T06:17:02;12.13;;;10.93;;
59089;SDS011;44878;50.102;18.982;2023-05-07T06:19:29;11.83;;;10.63;;
59089;SDS011;44878;50.102;18.982;2023-05-07T06:21:54;12.73;;;11.53;;
59089;SDS011;44878;50.102;18.982;2023-05-07T06:24:22;12.93;;;11.50;;
59089;SDS011;44878;50.102;18.982;2023-05-07T06:26:48;12.83;;;11.10;;
59089;SDS011;44878;50.102;18.982;2023-05-07T06:29:14;13.97;;;12.67;;
59089;SDS011;44878;50.102;18.982;2023-05-07T06:31:43;14.60;;;13.27;;
59089;SDS011;44878;50.102;18.982;2023-05-07T06:34:09;13.73;;;12.33;;
59089;SDS011;44878;50.102;18.982;2023-05-07T06:36:35;12.20;;;11.10;;
59089;SDS011;44878;50.102;18.982;2023-05-07T06:39:01;10.17;;;9.33;;
59089;SDS011;44878;50.102;18.982;2023-05-07T06:41:27;9.43;;;8.53;;
59089;SDS011;44878;50.102;18.982;2023-05-07T06:43:53;9.00;;;8.20;;
59089;SDS011;44878;50.102;18.982;2023-05-07T06:46:19;8.00;;;7.30;;
59089;SDS011;44878;50.102;18.982;2023-05-07T06:48:45;10.93;;;10.03;;
59089;SDS011;44878;50.102;18.982;2023-05-07T06:51:10;12.70;;;11.70;;
59089;SDS011;44878;50.102;18.982;2023-05-07T06:53:36;12.70;;;11.63;;
59089;SDS011;44878;50.102;18.982;2023-05-07T06:56:02;16.17;;;14.97;;
59089;SDS011;44878;50.102;18.982;2023-05-07T06:58:28;17.10;;;15.77;;
59089;SDS011;44878;50.102;18.982;2023-05-07T07:00:54;13.23;;;12.03;;
59089;SDS011;44878;50.102;18.982;2023-05-07T07:03:20;10.23;;;9.27;;
59089;SDS011;44878;50.102;18.982;2023-05-07T07:05:46;8.70;;;7.90;;
59089;SDS011;44878;50.102;18.982;2023-05-07T07:08:13;6.93;;;6.23;;
59089;SDS011;44878;50.102;18.982;2023-05-07T07:10:38;7.23;;;6.57;;
59089;SDS011;44878;50.102;18.982;2023-05-07T07:13:04;7.80;;;6.53;;
59089;SDS011;44878;50.102;18.982;2023-05-07T07:15:30;7.13;;;6.43;;
59089;SDS011;44878;50.102;18.982;2023-05-07T07:17:56;6.07;;;5.43;;
59089;SDS011;44878;50.102;18.982;2023-05-07T07:20:22;6.53;;;5.40;;
59089;SDS011;44878;50.102;18.982;2023-05-07T07:22:48;8.67;;;7.87;;
59089;SDS011;44878;50.102;18.982;2023-05-07T07:25:13;10.07;;;9.17;;
59089;SDS011;44878;50.102;18.982;2023-05-07T07:27:41;8.75;;;7.80;;
59089;SDS011;44878;50.102;18.982;2023-05-07T07:30:06;7.23;;;6.53;;
59089;SDS011;44878;50.102;18.982;2023-05-07T07:32:34;6.60;;;6.00;;
59089;SDS011;44878;50.102;18.982;2023-05-07T07:35:00;8.17;;;6.60;;
59089;SDS011;44878;50.102;18.982;2023-05-07T07:37:27;8.43;;;6.53;;
59089;SDS011;44878;50.102;18.982;2023-05-07T07:39:53;19.43;;;17.53;;
59089;SDS011;44878;50.102;18.982;2023-05-07T07:42:21;11.70;;;10.67;;
59089;SDS011;44878;50.102;18.982;2023-05-07T07:44:47;9.43;;;8.63;;
59089;SDS011;44878;50.102;18.982;2023-05-07T07:47:17;10.83;;;9.70;;
59089;SDS011;44878;50.102;18.982;2023-05-07T07:49:42;9.03;;;8.13;;
59089;SDS011;44878;50.102;18.982;2023-05-07T07:52:12;8.93;;;8.13;;
59089;SDS011;44878;50.102;18.982;2023-05-07T07:54:40;8.70;;;7.80;;
59089;SDS011;44878;50.102;18.982;2023-05-07T07:57:06;7.80;;;7.10;;
59089;SDS011;44878;50.102;18.982;2023-05-07T07:59:32;8.17;;;7.37;;
59089;SDS011;44878;50.102;18.982;2023-05-07T08:01:58;7.33;;;6.63;;
59089;SDS011;44878;50.102;18.982;2023-05-07T08:04:27;16.30;;;13.97;;
59089;SDS011;44878;50.102;18.982;2023-05-07T08:06:52;6.07;;;5.40;;
59089;SDS011;44878;50.102;18.982;2023-05-07T08:09:19;7.13;;;5.47;;
59089;SDS011;44878;50.102;18.982;2023-05-07T08:11:46;6.03;;;5.43;;
59089;SDS011;44878;50.102;18.982;2023-05-07T08:14:14;7.07;;;6.37;;
59089;SDS011;44878;50.102;18.982;2023-05-07T08:16:41;5.93;;;5.33;;
59089;SDS011;44878;50.102;18.982;2023-05-07T08:19:07;7.27;;;5.70;;
59089;SDS011;44878;50.102;18.982;2023-05-07T08:21:38;7.20;;;6.40;;
59089;SDS011;44878;50.102;18.982;2023-05-07T08:24:04;8.67;;;7.87;;
59089;SDS011;44878;50.102;18.982;2023-05-07T08:26:30;7.97;;;7.27;;
59089;SDS011;44878;50.102;18.982;2023-05-07T08:28:56;9.20;;;8.40;;
59089;SDS011;44878;50.102;18.982;2023-05-07T08:31:22;9.00;;;7.83;;
59089;SDS011;44878;50.102;18.982;2023-05-07T08:33:48;7.40;;;6.60;;
59089;SDS011;44878;50.102;18.982;2023-05-07T08:36:14;7.10;;;5.87;;
59089;SDS011;44878;50.102;18.982;2023-05-07T08:38:39;6.03;;;5.43;;
59089;SDS011;44878;50.102;18.982;2023-05-07T08:41:11;18.60;;;16.90;;
59089;SDS011;44878;50.102;18.982;2023-05-07T08:43:37;7.10;;;5.67;;
59089;SDS011;44878;50.102;18.982;2023-05-07T08:46:03;6.93;;;5.68;;
59089;SDS011;44878;50.102;18.982;2023-05-07T08:48:30;5.67;;;5.17;;
59089;SDS011;44878;50.102;18.982;2023-05-07T08:50:57;5.33;;;4.83;;
59089;SDS011;44878;50.102;18.982;2023-05-07T08:53:23;7.40;;;6.03;;
59089;SDS011;44878;50.102;18.982;2023-05-07T08:55:49;6.80;;;6.20;;
59089;SDS011;44878;50.102;18.982;2023-05-07T08:58:15;7.37;;;6.53;;
59089;SDS011;44878;50.102;18.982;2023-05-07T09:00:41;5.10;;;4.60;;
59089;SDS011;44878;50.102;18.982;2023-05-07T09:03:07;8.67;;;7.67;;
59089;SDS011;44878;50.102;18.982;2023-05-07T09:05:33;6.13;;;5.53;;
59089;SDS011;44878;50.102;18.982;2023-05-07T09:07:59;5.60;;;4.82;;
59089;SDS011;44878;50.102;18.982;2023-05-07T09:10:26;7.53;;;5.55;;
59089;SDS011;44878;50.102;18.982;2023-05-07T09:12:51;5.22;;;4.10;;
59089;SDS011;44878;50.102;18.982;2023-05-07T09:15:17;4.90;;;3.90;;
59089;SDS011;44878;50.102;18.982;2023-05-07T09:17:43;4.10;;;3.42;;
59089;SDS011;44878;50.102;18.982;2023-05-07T09:20:10;4.05;;;3.53;;
59089;SDS011;44878;50.102;18.982;2023-05-07T09:22:36;5.43;;;3.22;;
59089;SDS011;44878;50.102;18.982;2023-05-07T09:25:06;13.70;;;12.30;;
59089;SDS011;44878;50.102;18.982;2023-05-07T09:27:34;5.90;;;4.03;;
59089;SDS011;44878;50.102;18.982;2023-05-07T09:30:04;5.45;;;4.95;;
59089;SDS011;44878;50.102;18.982;2023-05-07T09:32:37;5.63;;;5.00;;
59089;SDS011;44878;50.102;18.982;2023-05-07T09:35:03;8.90;;;5.83;;
59089;SDS011;44878;50.102;18.982;2023-05-07T09:37:30;6.43;;;5.70;;
59089;SDS011;44878;50.102;18.982;2023-05-07T09:39:56;6.43;;;5.15;;
59089;SDS011;44878;50.102;18.982;2023-05-07T09:42:23;6.60;;;5.40;;
59089;SDS011;44878;50.102;18.982;2023-05-07T09:44:53;6.15;;;5.43;;
59089;SDS011;44878;50.102;18.982;2023-05-07T09:47:19;5.67;;;5.17;;
59089;SDS011;44878;50.102;18.982;2023-05-07T09:49:46;5.77;;;4.63;;
59089;SDS011;44878;50.102;18.982;2023-05-07T09:54:39;7.70;;;7.00;;
59089;SDS011;44878;50.102;18.982;2023-05-07T09:57:05;10.20;;;9.20;;
59089;SDS011;44878;50.102;18.982;2023-05-07T09:59:32;11.20;;;10.10;;
59089;SDS011;44878;50.102;18.982;2023-05-07T10:02:01;8.50;;;7.57;;
59089;SDS011;44878;50.102;18.982;2023-05-07T10:04:28;9.23;;;8.33;;
59089;SDS011;44878;50.102;18.982;2023-05-07T10:06:54;10.30;;;9.23;;
59089;SDS011;44878;50.102;18.982;2023-05-07T10:09:21;9.15;;;8.35;;
59089;SDS011;44878;50.102;18.982;2023-05-07T10:11:48;9.40;;;8.50;;
59089;SDS011;44878;50.102;18.982;2023-05-07T10:14:14;9.05;;;8.00;;
59089;SDS011;44878;50.102;18.982;2023-05-07T10:16:41;9.35;;;8.48;;
59089;SDS011;44878;50.102;18.982;2023-05-07T10:19:07;8.63;;;7.78;;
59089;SDS011;44878;50.102;18.982;2023-05-07T10:21:39;10.55;;;9.55;;
59089;SDS011;44878;50.102;18.982;2023-05-07T10:24:09;10.85;;;9.85;;
59089;SDS011;44878;50.102;18.982;2023-05-07T10:26:43;13.00;;;11.77;;
59089;SDS011;44878;50.102;18.982;2023-05-07T10:34:28;19.13;;;17.58;;
59089;SDS011;44878;50.102;18.982;2023-05-07T10:36:55;21.17;;;19.20;;
59089;SDS011;44878;50.102;18.982;2023-05-07T10:39:25;20.90;;;19.00;;
59089;SDS011;44878;50.102;18.982;2023-05-07T10:41:50;19.47;;;17.77;;
59089;SDS011;44878;50.102;18.982;2023-05-07T10:44:26;21.27;;;19.37;;
59089;SDS011;44878;50.102;18.982;2023-05-07T10:47:12;19.23;;;17.63;;
59089;SDS011;44878;50.102;18.982;2023-05-07T10:52:25;21.13;;;19.23;;
59089;SDS011;44878;50.102;18.982;2023-05-07T10:57:36;19.87;;;18.10;;
59089;SDS011;44878;50.102;18.982;2023-05-07T11:05:28;21.13;;;19.33;;
59089;SDS011;44878;50.102;18.982;2023-05-07T11:08:00;17.40;;;15.75;;
59089;SDS011;44878;50.102;18.982;2023-05-07T11:10:48;20.00;;;18.20;;
59089;SDS011;44878;50.102;18.982;2023-05-07T11:13:12;19.27;;;17.58;;
59089;SDS011;44878;50.102;18.982;2023-05-07T11:15:42;19.63;;;17.87;;
59089;SDS011;44878;50.102;18.982;2023-05-07T11:18:09;19.70;;;18.10;;
59089;SDS011;44878;50.102;18.982;2023-05-07T11:20:45;20.47;;;18.57;;
59089;SDS011;44878;50.102;18.982;2023-05-07T11:28:32;17.13;;;15.73;;
59089;SDS011;44878;50.102;18.982;2023-05-07T11:31:02;15.73;;;14.43;;
59089;SDS011;44878;50.102;18.982;2023-05-07T11:33:28;16.43;;;15.10;;
59089;SDS011;44878;50.102;18.982;2023-05-07T11:35:54;16.80;;;15.40;;
59089;SDS011;44878;50.102;18.982;2023-05-07T11:38:20;16.93;;;15.53;;
59089;SDS011;44878;50.102;18.982;2023-05-07T11:40:53;16.00;;;14.77;;
59089;SDS011;44878;50.102;18.982;2023-05-07T11:43:19;17.83;;;16.33;;
59089;SDS011;44878;50.102;18.982;2023-05-07T11:45:45;15.77;;;14.57;;
59089;SDS011;44878;50.102;18.982;2023-05-07T11:48:12;14.63;;;13.40;;
59089;SDS011;44878;50.102;18.982;2023-05-07T11:53:24;14.60;;;13.40;;
59089;SDS011;44878;50.102;18.982;2023-05-07T11:55:56;13.82;;;12.63;;
59089;SDS011;44878;50.102;18.982;2023-05-07T11:58:25;12.40;;;11.40;;
59089;SDS011;44878;50.102;18.982;2023-05-07T12:00:52;11.77;;;10.83;;
59089;SDS011;44878;50.102;18.982;2023-05-07T12:03:17;10.50;;;9.60;;
59089;SDS011;44878;50.102;18.982;2023-05-07T12:05:44;10.97;;;10.07;;
59089;SDS011;44878;50.102;18.982;2023-05-07T12:08:14;12.00;;;11.07;;
59089;SDS011;44878;50.102;18.982;2023-05-07T12:10:42;10.53;;;9.63;;
59089;SDS011;44878;50.102;18.982;2023-05-07T12:13:13;10.63;;;9.70;;
59089;SDS011;44878;50.102;18.982;2023-05-07T12:15:43;11.97;;;10.93;;
59089;SDS011;44878;50.102;18.982;2023-05-07T12:18:08;9.60;;;8.77;;
59089;SDS011;44878;50.102;18.982;2023-05-07T12:20:35;11.83;;;10.73;;
59089;SDS011;44878;50.102;18.982;2023-05-07T12:23:02;10.93;;;10.03;;
59089;SDS011;44878;50.102;18.982;2023-05-07T12:25:31;11.97;;;10.97;;
59089;SDS011;44878;50.102;18.982;2023-05-07T12:27:57;11.07;;;10.07;;
59089;SDS011;44878;50.102;18.982;2023-05-07T12:30:24;13.40;;;12.30;;
59089;SDS011;44878;50.102;18.982;2023-05-07T12:32:53;15.33;;;14.13;;
59089;SDS011;44878;50.102;18.982;2023-05-07T12:35:30;11.93;;;10.93;;
59089;SDS011;44878;50.102;18.982;2023-05-07T12:37:56;12.73;;;11.60;;
59089;SDS011;44878;50.102;18.982;2023-05-07T12:40:22;13.93;;;12.73;;
59089;SDS011;44878;50.102;18.982;2023-05-07T12:42:48;10.63;;;9.63;;
59089;SDS011;44878;50.102;18.982;2023-05-07T12:45:21;10.90;;;10.00;;
59089;SDS011;44878;50.102;18.982;2023-05-07T12:47:47;13.20;;;12.10;;
59089;SDS011;44878;50.102;18.982;2023-05-07T12:50:13;12.80;;;11.80;;
59089;SDS011;44878;50.102;18.982;2023-05-07T12:52:39;14.03;;;12.93;;
59089;SDS011;44878;50.102;18.982;2023-05-07T12:55:07;12.37;;;11.27;;
59089;SDS011;44878;50.102;18.982;2023-05-07T12:57:42;15.60;;;14.27;;
59089;SDS011;44878;50.102;18.982;2023-05-07T13:00:09;12.03;;;11.03;;
59089;SDS011;44878;50.102;18.982;2023-05-07T13:02:39;12.67;;;11.67;;
59089;SDS011;44878;50.102;18.982;2023-05-07T13:05:05;10.97;;;10.07;;
59089;SDS011;44878;50.102;18.982;2023-05-07T13:07:31;9.93;;;9.13;;
59089;SDS011;44878;50.102;18.982;2023-05-07T13:09:58;10.53;;;9.63;;
59089;SDS011;44878;50.102;18.982;2023-05-07T13:12:23;8.80;;;8.07;;
59089;SDS011;44878;50.102;18.982;2023-05-07T13:14:50;9.63;;;8.80;;
59089;SDS011;44878;50.102;18.982;2023-05-07T13:17:15;10.03;;;9.17;;
59089;SDS011;44878;50.102;18.982;2023-05-07T13:19:41;11.37;;;10.23;;
59089;SDS011;44878;50.102;18.982;2023-05-07T13:22:07;10.67;;;9.77;;
59089;SDS011;44878;50.102;18.982;2023-05-07T13:24:33;11.90;;;10.70;;
59089;SDS011;44878;50.102;18.982;2023-05-07T13:26:59;13.67;;;12.47;;
59089;SDS011;44878;50.102;18.982;2023-05-07T13:29:25;11.30;;;10.40;;
59089;SDS011;44878;50.102;18.982;2023-05-07T13:31:58;11.53;;;10.53;;
59089;SDS011;44878;50.102;18.982;2023-05-07T13:34:24;10.50;;;9.60;;
59089;SDS011;44878;50.102;18.982;2023-05-07T13:36:52;9.27;;;8.48;;
59089;SDS011;44878;50.102;18.982;2023-05-07T13:39:18;9.80;;;8.90;;
59089;SDS011;44878;50.102;18.982;2023-05-07T13:41:43;9.83;;;8.93;;
59089;SDS011;44878;50.102;18.982;2023-05-07T13:44:10;8.87;;;8.07;;
59089;SDS011;44878;50.102;18.982;2023-05-07T13:46:35;8.47;;;7.60;;
59089;SDS011;44878;50.102;18.982;2023-05-07T13:49:02;7.67;;;6.97;;
59089;SDS011;44878;50.102;18.982;2023-05-07T13:51:27;7.67;;;6.73;;
59089;SDS011;44878;50.102;18.982;2023-05-07T13:53:54;6.63;;;5.83;;
59089;SDS011;44878;50.102;18.982;2023-05-07T13:56:20;7.20;;;6.50;;
59089;SDS011;44878;50.102;18.982;2023-05-07T13:58:58;8.60;;;6.57;;
59089;SDS011;44878;50.102;18.982;2023-05-07T14:01:40;7.40;;;5.77;;
59089;SDS011;44878;50.102;18.982;2023-05-07T14:04:06;7.97;;;7.03;;
59089;SDS011;44878;50.102;18.982;2023-05-07T14:06:33;7.70;;;7.00;;
59089;SDS011;44878;50.102;18.982;2023-05-07T14:08:59;11.13;;;9.97;;
59089;SDS011;44878;50.102;18.982;2023-05-07T14:11:29;8.13;;;6.90;;
59089;SDS011;44878;50.102;18.982;2023-05-07T14:14:03;7.33;;;6.57;;
59089;SDS011;44878;50.102;18.982;2023-05-07T14:16:34;9.37;;;6.70;;
59089;SDS011;44878;50.102;18.982;2023-05-07T14:19:03;8.53;;;7.63;;
59089;SDS011;44878;50.102;18.982;2023-05-07T14:21:29;9.10;;;8.30;;
59089;SDS011;44878;50.102;18.982;2023-05-07T14:23:56;9.07;;;8.18;;
59089;SDS011;44878;50.102;18.982;2023-05-07T14:26:25;9.27;;;8.47;;
59089;SDS011;44878;50.102;18.982;2023-05-07T14:28:52;9.30;;;8.50;;
59089;SDS011;44878;50.102;18.982;2023-05-07T14:31:20;9.50;;;8.70;;
59089;SDS011;44878;50.102;18.982;2023-05-07T14:33:46;8.87;;;7.97;;
59089;SDS011;44878;50.102;18.982;2023-05-07T14:36:12;7.90;;;7.20;;
59089;SDS011;44878;50.102;18.982;2023-05-07T14:38:38;7.13;;;6.43;;
59089;SDS011;44878;50.102;18.982;2023-05-07T14:41:04;7.20;;;6.50;;